Time;durP1;ratioP1;P1;durP2;ratioP2;P2;SDS_P1;SDS_P2;PMS_P1;PMS_P2;Temp;Humidity;BMP_temperature;BMP_pressure;BME280_temperature;BME280_humidity;BME280_pressure;Samples;Min_cycle;Max_cycle;Signal;HPM_P1;HPM_P2
2023/03/18 00:00:34;;;;;;;15.90;7.82;;;7.70;80.70;;;;;;2083931;28;20081;-75
2023/03/18 00:01:34;;;;;;;10.98;7.57;;;7.70;80.50;;;;;;2090844;28;20435;-76
2023/03/18 00:02:36;;;;;;;15.30;7.40;;;7.70;79.80;;;;;;2090148;28;20040;-76
2023/03/18 00:03:37;;;;;;;12.70;7.43;;;7.60;79.70;;;;;;2080945;28;20032;-75
2023/03/18 00:04:39;;;;;;;13.32;7.95;;;7.60;80.30;;;;;;2084934;28;20032;-75
2023/03/18 00:05:40;;;;;;;14.95;8.13;;;7.60;81.20;;;;;;2087434;28;20033;-75
2023/03/18 00:06:42;;;;;;;13.07;7.90;;;7.60;81.20;;;;;;2090379;28;20119;-75
2023/03/18 00:07:44;;;;;;;13.38;7.88;;;7.60;81.00;;;;;;2088831;28;20504;-75
2023/03/18 00:08:47;;;;;;;12.90;8.05;;;7.60;80.80;;;;;;2082012;28;20025;-76
2023/03/18 00:09:47;;;;;;;12.38;8.00;;;7.60;81.00;;;;;;2087897;28;20032;-75
2023/03/18 00:10:50;;;;;;;13.45;7.53;;;7.60;80.50;;;;;;2089055;28;20459;-74
2023/03/18 00:11:51;;;;;;;14.33;7.97;;;7.60;80.70;;;;;;2087502;28;20024;-76
2023/03/18 00:12:52;;;;;;;10.85;7.68;;;7.60;80.30;;;;;;2087687;28;20043;-76
2023/03/18 00:13:53;;;;;;;12.38;7.78;;;7.60;80.60;;;;;;2087271;28;20033;-75
2023/03/18 00:14:53;;;;;;;12.60;7.97;;;7.60;81.10;;;;;;2087415;28;20508;-76
2023/03/18 00:15:54;;;;;;;13.73;7.90;;;7.50;80.70;;;;;;2089865;28;20032;-75
2023/03/18 00:16:55;;;;;;;14.10;8.15;;;7.50;81.80;;;;;;2088099;28;20033;-76
2023/03/18 00:17:58;;;;;;;13.40;8.02;;;7.50;81.00;;;;;;2088658;28;20055;-74
2023/03/18 00:18:59;;;;;;;14.93;7.88;;;7.50;80.50;;;;;;2090953;28;20101;-75
2023/03/18 00:20:04;;;;;;;14.45;7.90;;;7.60;80.00;;;;;;2083931;28;20439;-74
2023/03/18 00:21:05;;;;;;;12.15;8.18;;;7.60;80.60;;;;;;2083140;28;20050;-74
2023/03/18 00:22:07;;;;;;;15.60;8.23;;;7.60;79.90;;;;;;2089158;28;20659;-74
2023/03/18 00:23:08;;;;;;;12.80;7.88;;;7.60;79.70;;;;;;2087168;28;20032;-74
2023/03/18 00:24:09;;;;;;;13.93;8.10;;;7.60;80.30;;;;;;2087018;28;20090;-76
2023/03/18 00:25:12;;;;;;;14.85;8.10;;;7.60;80.00;;;;;;2087208;28;20086;-75
2023/03/18 00:26:13;;;;;;;12.13;7.82;;;7.60;80.20;;;;;;2085947;28;20158;-75
2023/03/18 00:27:15;;;;;;;12.13;7.60;;;7.60;80.00;;;;;;2087887;28;20024;-75
2023/03/18 00:28:15;;;;;;;13.60;7.93;;;7.60;79.80;;;;;;2090034;28;20028;-75
2023/03/18 00:29:16;;;;;;;12.80;7.50;;;7.60;80.30;;;;;;2090846;28;20088;-74
2023/03/18 00:30:17;;;;;;;12.02;7.90;;;7.50;81.00;;;;;;2082670;28;20052;-74
2023/03/18 00:31:18;;;;;;;12.93;7.88;;;7.50;80.90;;;;;;2084859;28;20029;-75
2023/03/18 00:32:20;;;;;;;14.07;8.02;;;7.50;80.90;;;;;;2078153;28;20030;-75
2023/03/18 00:33:22;;;;;;;11.70;7.40;;;7.50;81.00;;;;;;2086105;28;20068;-75
2023/03/18 00:34:22;;;;;;;11.80;7.53;;;7.50;80.90;;;;;;2090903;28;20650;-75
2023/03/18 00:35:26;;;;;;;12.57;7.60;;;7.50;80.60;;;;;;2093279;28;20112;-75
2023/03/18 00:36:27;;;;;;;12.30;7.60;;;7.50;81.10;;;;;;2091230;28;20082;-75
2023/03/18 00:37:32;;;;;;;15.20;8.27;;;7.40;80.80;;;;;;2090818;28;20036;-75
2023/03/18 00:38:34;;;;;;;13.80;8.35;;;7.50;80.10;;;;;;2084982;28;20052;-75
2023/03/18 00:39:36;;;;;;;12.25;8.13;;;7.50;79.60;;;;;;2088687;28;20016;-75
2023/03/18 00:40:52;;;;;;;12.07;7.20;;;7.50;79.20;;;;;;2092677;28;20059;-75
2023/03/18 00:41:56;;;;;;;11.70;7.70;;;7.50;79.10;;;;;;2081008;28;20408;-75
2023/03/18 00:43:06;;;;;;;13.23;7.88;;;7.50;79.10;;;;;;2093026;28;20031;-75
2023/03/18 00:44:07;;;;;;;12.88;7.40;;;7.50;79.30;;;;;;2085539;28;20032;-76
2023/03/18 00:45:10;;;;;;;15.00;7.97;;;7.50;79.80;;;;;;2091622;28;20054;-76
2023/03/18 00:46:16;;;;;;;12.98;7.50;;;7.60;79.80;;;;;;2090899;28;20111;-75
2023/03/18 00:47:17;;;;;;;12.32;7.40;;;7.60;79.50;;;;;;2091078;28;20070;-75
2023/03/18 00:48:17;;;;;;;12.68;7.95;;;7.60;78.70;;;;;;2091291;28;20089;-76
2023/03/18 00:49:18;;;;;;;11.68;7.40;;;7.60;78.50;;;;;;2091757;28;20094;-76
2023/03/18 00:50:19;;;;;;;13.90;7.95;;;7.60;78.60;;;;;;2088744;28;20125;-75
2023/03/18 00:51:22;;;;;;;12.40;7.35;;;7.60;78.40;;;;;;2074629;28;21086;-75
2023/03/18 00:52:24;;;;;;;11.65;7.70;;;7.60;78.60;;;;;;2089119;28;20170;-75
2023/03/18 00:53:25;;;;;;;13.93;7.85;;;7.60;78.50;;;;;;2091536;28;20090;-75
2023/03/18 00:54:26;;;;;;;13.88;7.60;;;7.60;78.50;;;;;;2082330;28;20847;-75
2023/03/18 00:55:27;;;;;;;11.35;7.80;;;7.60;78.30;;;;;;2084112;28;20113;-75
2023/03/18 00:56:30;;;;;;;12.27;7.35;;;7.60;78.50;;;;;;2069359;28;20720;-75
2023/03/18 00:57:32;;;;;;;17.10;8.20;;;7.60;78.60;;;;;;2076113;28;20148;-75
2023/03/18 00:58:34;;;;;;;12.43;7.50;;;7.60;77.50;;;;;;2084390;28;20040;-75
2023/03/18 00:59:34;;;;;;;13.38;7.57;;;7.60;78.40;;;;;;2088810;28;20112;-75
2023/03/18 01:00:36;;;;;;;12.30;7.43;;;7.60;78.70;;;;;;2091169;28;20027;-76
2023/03/18 01:01:38;;;;;;;12.25;7.88;;;7.60;79.10;;;;;;2080242;28;20029;-75
2023/03/18 01:02:40;;;;;;;14.20;8.18;;;7.60;78.30;;;;;;2078880;28;20072;-76
2023/03/18 01:03:41;;;;;;;14.38;8.27;;;7.60;78.30;;;;;;2083279;28;20109;-75
2023/03/18 01:04:43;;;;;;;13.38;7.50;;;7.60;78.20;;;;;;2090127;28;20120;-75
2023/03/18 01:05:44;;;;;;;11.35;7.55;;;7.60;79.00;;;;;;2087997;28;20569;-76
2023/03/18 01:06:45;;;;;;;11.00;7.32;;;7.60;78.70;;;;;;2078106;28;20126;-75
2023/03/18 01:07:47;;;;;;;12.77;7.82;;;7.60;78.90;;;;;;2075692;28;20524;-76
2023/03/18 01:08:49;;;;;;;11.82;7.45;;;7.60;79.40;;;;;;2072806;28;20195;-75
2023/03/18 01:09:49;;;;;;;13.32;7.97;;;7.60;78.10;;;;;;2071676;28;20030;-76
2023/03/18 01:10:50;;;;;;;12.27;7.43;;;7.60;78.60;;;;;;2070660;28;20724;-75
2023/03/18 01:11:50;;;;;;;13.20;7.97;;;7.60;78.90;;;;;;2086997;28;20033;-75
2023/03/18 01:12:52;;;;;;;13.40;7.60;;;7.60;78.30;;;;;;2078922;28;20033;-76
2023/03/18 01:13:53;;;;;;;14.50;7.85;;;7.60;79.20;;;;;;2072444;28;20622;-76
2023/03/18 01:14:53;;;;;;;12.40;7.78;;;7.60;78.30;;;;;;2077699;28;20049;-74
2023/03/18 01:15:55;;;;;;;14.63;8.00;;;7.60;78.80;;;;;;2085584;28;20531;-78
2023/03/18 01:16:56;;;;;;;12.95;7.68;;;7.60;78.30;;;;;;2082522;28;20055;-76
2023/03/18 01:17:57;;;;;;;11.98;7.60;;;7.60;78.70;;;;;;2085346;28;20030;-75
2023/03/18 01:18:58;;;;;;;14.75;8.05;;;7.60;79.50;;;;;;2088960;28;20029;-75
2023/03/18 01:19:59;;;;;;;12.38;7.32;;;7.60;79.30;;;;;;2077503;28;20108;-75
2023/03/18 01:21:00;;;;;;;13.57;8.32;;;7.50;79.40;;;;;;2088771;28;20111;-75
2023/03/18 01:22:06;;;;;;;12.27;7.72;;;7.50;79.40;;;;;;2087040;28;20063;-75
2023/03/18 01:23:12;;;;;;;14.27;7.80;;;7.50;79.20;;;;;;2087173;28;20037;-75
2023/03/18 01:24:15;;;;;;;13.32;7.50;;;7.50;78.40;;;;;;2089091;28;20086;-76
2023/03/18 01:25:16;;;;;;;13.85;7.90;;;7.50;79.00;;;;;;2086070;28;20070;-76
2023/03/18 01:26:19;;;;;;;13.95;7.88;;;7.50;78.80;;;;;;2085866;28;20029;-76
2023/03/18 01:27:20;;;;;;;12.10;7.53;;;7.50;78.70;;;;;;2077702;28;20619;-76
2023/03/18 01:28:22;;;;;;;16.38;7.90;;;7.50;79.50;;;;;;2068375;28;20033;-78
2023/03/18 01:29:24;;;;;;;11.70;7.72;;;7.60;79.10;;;;;;2071395;28;20029;-76
2023/03/18 01:30:24;;;;;;;11.98;7.78;;;7.50;79.40;;;;;;2088692;28;20044;-76
2023/03/18 01:31:27;;;;;;;14.80;7.75;;;7.50;78.90;;;;;;2079131;28;20038;-78
2023/03/18 01:32:33;;;;;;;12.75;7.88;;;7.50;78.80;;;;;;2079811;28;20501;-74
2023/03/18 01:33:34;;;;;;;13.38;7.20;;;7.60;78.60;;;;;;2087318;28;20070;-77
2023/03/18 01:34:35;;;;;;;11.75;7.57;;;7.50;78.60;;;;;;2089556;28;20476;-77
2023/03/18 01:35:36;;;;;;;13.95;7.70;;;7.50;79.00;;;;;;2074323;28;20052;-70
2023/03/18 01:36:37;;;;;;;13.55;7.82;;;7.50;79.00;;;;;;2077861;28;20037;-70
2023/03/18 01:37:42;;;;;;;14.20;8.05;;;7.50;78.60;;;;;;2077931;28;20033;-69
2023/03/18 01:38:47;;;;;;;12.55;7.82;;;7.50;78.50;;;;;;2074979;28;20112;-69
2023/03/18 01:39:48;;;;;;;12.30;7.72;;;7.50;79.00;;;;;;2077510;28;20576;-69
2023/03/18 01:40:57;;;;;;;12.80;7.57;;;7.60;79.20;;;;;;2077420;28;20083;-69
2023/03/18 01:41:58;;;;;;;16.30;8.15;;;7.60;79.10;;;;;;2075938;28;20045;-70
2023/03/18 01:43:28;;;;;;;13.15;7.82;;;7.60;79.20;;;;;;2071848;28;20034;-71
2023/03/18 01:44:30;;;;;;;12.98;8.02;;;7.50;79.60;;;;;;2078690;28;20124;-70
2023/03/18 01:45:33;;;;;;;11.23;7.18;;;7.50;79.20;;;;;;2077805;28;20029;-70
2023/03/18 01:46:43;;;;;;;12.40;7.65;;;7.50;79.10;;;;;;2090421;28;20115;-70
2023/03/18 01:47:45;;;;;;;13.18;7.85;;;7.50;79.70;;;;;;2077588;28;20041;-69
2023/03/18 01:48:50;;;;;;;15.50;8.10;;;7.50;79.30;;;;;;2077603;28;20040;-69
2023/03/18 01:49:51;;;;;;;14.23;7.72;;;7.50;79.00;;;;;;2077537;28;20025;-69
2023/03/18 01:50:58;;;;;;;13.38;7.97;;;7.50;79.80;;;;;;2085193;28;20021;-70
2023/03/18 01:52:14;;;;;;;12.05;7.80;;;7.50;80.00;;;;;;2086920;28;20093;-68
2023/03/18 01:53:18;;;;;;;13.55;7.63;;;7.50;80.20;;;;;;2083265;28;20040;-69
2023/03/18 01:54:19;;;;;;;13.48;8.20;;;7.40;80.10;;;;;;2085191;28;20021;-69
2023/03/18 01:55:23;;;;;;;13.15;8.18;;;7.40;79.40;;;;;;2075842;28;20025;-70
2023/03/18 01:56:24;;;;;;;15.20;8.63;;;7.50;79.60;;;;;;2086906;28;20056;-68
2023/03/18 01:57:26;;;;;;;11.07;7.50;;;7.40;79.40;;;;;;2088482;28;20032;-70
2023/03/18 01:58:33;;;;;;;13.68;7.65;;;7.50;80.00;;;;;;2078362;28;20045;-69
2023/03/18 01:59:38;;;;;;;10.98;7.30;;;7.40;80.40;;;;;;2079199;28;20029;-70
2023/03/18 02:00:45;;;;;;;12.43;7.82;;;7.40;81.00;;;;;;2078120;28;20060;-70
2023/03/18 02:01:54;;;;;;;14.75;8.38;;;7.40;80.20;;;;;;2077928;28;20036;-70
2023/03/18 02:02:56;;;;;;;16.42;7.68;;;7.40;79.70;;;;;;2074481;28;20172;-70
2023/03/18 02:03:59;;;;;;;14.35;7.90;;;7.40;80.00;;;;;;2082474;28;20029;-70
2023/03/18 02:05:05;;;;;;;11.57;7.50;;;7.40;79.70;;;;;;2083961;28;20060;-71
2023/03/18 02:06:06;;;;;;;15.23;7.97;;;7.40;80.50;;;;;;2080027;28;20020;-70
2023/03/18 02:07:12;;;;;;;13.75;7.95;;;7.40;80.60;;;;;;2085181;28;20490;-71
2023/03/18 02:08:13;;;;;;;12.55;7.70;;;7.40;80.20;;;;;;2088126;28;20036;-70
2023/03/18 02:09:15;;;;;;;13.27;8.30;;;7.40;80.40;;;;;;2083553;28;20032;-70
2023/03/18 02:10:26;;;;;;;13.27;7.88;;;7.40;80.30;;;;;;2089053;28;20032;-70
2023/03/18 02:11:33;;;;;;;;;;;7.40;81.40;;;;;;2090722;28;20108;-70
2023/03/18 02:12:37;;;;;;;12.52;7.70;;;7.40;81.60;;;;;;2082351;28;19956;-70
2023/03/18 02:13:41;;;;;;;14.57;7.60;;;7.40;80.60;;;;;;2081606;28;20021;-70
2023/03/18 02:14:43;;;;;;;12.38;7.63;;;7.40;80.80;;;;;;2088422;28;20059;-70
2023/03/18 02:16:04;;;;;;;12.38;8.10;;;7.40;81.00;;;;;;2090814;28;20482;-70
2023/03/18 02:17:17;;;;;;;13.73;7.47;;;7.30;81.10;;;;;;2071317;28;20091;-76
2023/03/18 02:18:27;;;;;;;14.27;7.80;;;7.30;81.30;;;;;;2078760;28;20034;-75
2023/03/18 02:19:44;;;;;;;13.57;8.07;;;7.30;82.30;;;;;;2089217;28;20033;-75
2023/03/18 02:21:07;;;;;;;12.75;7.90;;;7.30;82.10;;;;;;2086150;28;20020;-75
2023/03/18 02:22:30;;;;;;;12.82;7.88;;;7.30;81.50;;;;;;2090021;28;20028;-75
2023/03/18 02:23:51;;;;;;;11.95;7.78;;;7.30;82.20;;;;;;2079216;28;20541;-76
2023/03/18 02:25:12;;;;;;;12.63;7.85;;;7.30;81.90;;;;;;2078011;28;20024;-79
2023/03/18 02:26:35;;;;;;;13.98;7.90;;;7.30;81.30;;;;;;2072785;28;20030;-76
2023/03/18 02:27:42;;;;;;;14.05;8.13;;;7.30;82.10;;;;;;2083947;28;21066;-76
2023/03/18 02:28:44;;;;;;;13.10;7.70;;;7.30;82.10;;;;;;2085286;28;20027;-74
2023/03/18 02:29:46;;;;;;;14.60;8.10;;;7.30;82.30;;;;;;2081925;28;20108;-76
2023/03/18 02:30:56;;;;;;;11.25;7.28;;;7.30;82.50;;;;;;2081730;28;20412;-76
2023/03/18 02:32:01;;;;;;;12.15;7.47;;;7.20;82.80;;;;;;2065823;28;20584;-75
2023/03/18 02:33:03;;;;;;;12.10;7.75;;;7.20;82.30;;;;;;2083429;28;20028;-76
2023/03/18 02:34:06;;;;;;;14.57;7.88;;;7.20;82.90;;;;;;2082605;28;20991;-76
2023/03/18 02:35:10;;;;;;;12.77;7.70;;;7.20;83.40;;;;;;2088543;28;20077;-76
2023/03/18 02:36:18;;;;;;;12.27;7.32;;;7.20;84.00;;;;;;2086478;28;20044;-76
2023/03/18 02:37:20;;;;;;;12.02;7.70;;;7.20;84.20;;;;;;2086551;28;20596;-76
2023/03/18 02:38:20;;;;;;;12.43;8.07;;;7.20;84.20;;;;;;2087932;28;20044;-76
2023/03/18 02:39:22;;;;;;;14.38;7.43;;;7.20;84.40;;;;;;2077039;28;20186;-76
2023/03/18 02:40:33;;;;;;;14.70;8.05;;;7.10;84.30;;;;;;2082080;28;20032;-76
2023/03/18 02:41:36;;;;;;;13.57;7.68;;;7.20;83.60;;;;;;2078494;28;20099;-76
2023/03/18 02:42:37;;;;;;;12.00;7.70;;;7.20;83.10;;;;;;2081447;28;20051;-76
2023/03/18 02:43:39;;;;;;;11.68;7.13;;;7.20;82.90;;;;;;2081774;28;20111;-76
2023/03/18 02:44:44;;;;;;;12.63;7.70;;;7.20;83.30;;;;;;2069543;28;20060;-76
2023/03/18 02:46:29;;;;;;;11.05;7.45;;;7.20;84.40;;;;;;2082502;28;20132;-75
2023/03/18 02:47:30;;;;;;;12.82;7.82;;;7.20;84.10;;;;;;2083589;28;20024;-76
2023/03/18 02:48:36;;;;;;;12.38;7.72;;;7.20;84.00;;;;;;2081623;28;20033;-76
2023/03/18 02:49:37;;;;;;;14.93;7.72;;;7.20;84.10;;;;;;2074717;28;20044;-76
2023/03/18 02:50:38;;;;;;;12.63;7.85;;;7.20;84.30;;;;;;2086758;28;20178;-76
2023/03/18 02:51:39;;;;;;;11.52;7.80;;;7.10;84.70;;;;;;2088016;28;20055;-75
2023/03/18 02:52:39;;;;;;;11.98;7.57;;;7.10;84.40;;;;;;2087040;28;20049;-75
2023/03/18 02:53:42;;;;;;;11.63;7.38;;;7.10;83.70;;;;;;2083390;28;20036;-75
2023/03/18 02:54:43;;;;;;;12.25;7.50;;;7.20;84.10;;;;;;2078840;28;20095;-76
2023/03/18 02:55:44;;;;;;;14.15;7.72;;;7.20;84.30;;;;;;2079448;28;20592;-75
2023/03/18 02:56:45;;;;;;;12.98;7.63;;;7.10;84.40;;;;;;2070122;28;20103;-75
2023/03/18 02:57:46;;;;;;;11.40;7.78;;;7.10;83.30;;;;;;2091873;28;20036;-74
2023/03/18 02:58:46;;;;;;;14.27;8.10;;;7.20;84.10;;;;;;2087178;28;20511;-75
2023/03/18 02:59:48;;;;;;;11.05;7.47;;;7.10;83.50;;;;;;2076550;28;20396;-75
2023/03/18 03:00:49;;;;;;;13.43;7.80;;;7.10;83.50;;;;;;2067551;28;20108;-76
2023/03/18 03:01:52;;;;;;;12.68;7.55;;;7.10;83.40;;;;;;2080109;28;20840;-75
2023/03/18 03:02:54;;;;;;;12.73;8.20;;;7.10;84.20;;;;;;2082953;28;20089;-75
2023/03/18 03:03:55;;;;;;;11.10;7.22;;;7.20;84.30;;;;;;2084876;28;20690;-76
2023/03/18 03:04:56;;;;;;;13.45;7.80;;;7.10;84.30;;;;;;2085150;28;20033;-75
2023/03/18 03:05:57;;;;;;;14.65;7.85;;;7.10;83.50;;;;;;2080400;28;20080;-76
2023/03/18 03:07:00;;;;;;;13.07;7.70;;;7.10;83.90;;;;;;2083378;28;20049;-76
2023/03/18 03:08:33;;;;;;;11.57;7.60;;;7.10;84.20;;;;;;2068323;28;20411;-75
2023/03/18 03:09:34;;;;;;;11.90;7.45;;;7.10;83.90;;;;;;2082669;28;20131;-75
2023/03/18 03:10:35;;;;;;;13.85;8.07;;;7.10;84.10;;;;;;2075688;28;20021;-75
2023/03/18 03:11:36;;;;;;;12.20;7.72;;;7.10;84.30;;;;;;2073075;28;20034;-75
2023/03/18 03:12:46;;;;;;;11.90;7.78;;;7.10;84.90;;;;;;2072890;28;20022;-75
2023/03/18 03:13:49;;;;;;;13.48;7.82;;;7.10;84.50;;;;;;2075636;28;20036;-74
2023/03/18 03:14:50;;;;;;;14.02;8.15;;;7.10;84.20;;;;;;2078538;28;20028;-75
2023/03/18 03:15:51;;;;;;;12.82;7.82;;;7.10;85.00;;;;;;2077852;28;20032;-76
2023/03/18 03:16:52;;;;;;;14.25;8.00;;;7.10;85.00;;;;;;2084927;28;20801;-77
2023/03/18 03:17:53;;;;;;;12.80;7.38;;;7.10;84.40;;;;;;2082440;28;20063;-76
2023/03/18 03:18:54;;;;;;;11.15;7.40;;;7.10;84.90;;;;;;2084138;28;20499;-74
2023/03/18 03:19:55;;;;;;;16.83;8.02;;;7.10;85.30;;;;;;2078683;28;20486;-74
2023/03/18 03:20:55;;;;;;;11.90;7.60;;;7.10;85.80;;;;;;2085201;28;20021;-75
2023/03/18 03:21:56;;;;;;;14.77;7.90;;;7.10;86.00;;;;;;2086138;28;20036;-75
2023/03/18 03:22:59;;;;;;;11.77;7.55;;;7.10;85.40;;;;;;2086405;28;20735;-76
2023/03/18 03:23:59;;;;;;;14.25;7.72;;;7.10;85.20;;;;;;2085259;28;20033;-75
2023/03/18 03:25:00;;;;;;;11.63;7.63;;;7.10;84.80;;;;;;2079922;28;20025;-75
2023/03/18 03:26:03;;;;;;;13.07;7.75;;;7.10;84.60;;;;;;2085852;28;20028;-74
2023/03/18 03:27:03;;;;;;;12.63;7.85;;;7.10;85.20;;;;;;2085408;28;20491;-75
2023/03/18 03:28:06;;;;;;;12.40;7.70;;;7.10;85.70;;;;;;2084577;28;20029;-76
2023/03/18 03:29:06;;;;;;;13.05;7.47;;;7.10;86.00;;;;;;2086660;28;20058;-75
2023/03/18 03:30:12;;;;;;;11.65;7.50;;;7.10;86.10;;;;;;2082002;28;20103;-74
2023/03/18 03:31:13;;;;;;;14.68;7.57;;;7.10;85.60;;;;;;2082589;28;20025;-75
2023/03/18 03:32:13;;;;;;;12.45;7.53;;;7.00;85.50;;;;;;2070376;28;20038;-74
2023/03/18 03:33:14;;;;;;;14.25;7.63;;;7.10;86.10;;;;;;2077332;28;20034;-76
2023/03/18 03:34:15;;;;;;;12.40;7.57;;;7.10;86.30;;;;;;2083469;28;20029;-75
2023/03/18 03:35:18;;;;;;;11.98;7.75;;;7.00;86.60;;;;;;2086803;28;20035;-76
2023/03/18 03:36:19;;;;;;;13.25;7.30;;;7.00;85.20;;;;;;2084708;28;20028;-76
2023/03/18 03:37:20;;;;;;;12.82;7.60;;;7.00;85.50;;;;;;2080166;28;20150;-76
2023/03/18 03:38:21;;;;;;;11.48;7.40;;;7.00;85.90;;;;;;2077021;28;20546;-77
2023/03/18 03:39:22;;;;;;;13.27;7.50;;;7.00;86.40;;;;;;2084115;28;20028;-77
2023/03/18 03:40:23;;;;;;;13.75;8.13;;;7.00;86.40;;;;;;2088127;28;20055;-75
2023/03/18 03:41:25;;;;;;;12.27;7.40;;;7.00;85.00;;;;;;2080697;28;20039;-75
2023/03/18 03:42:25;;;;;;;12.65;7.78;;;7.00;85.40;;;;;;2086324;28;20076;-75
2023/03/18 03:43:26;;;;;;;12.18;7.60;;;7.00;85.40;;;;;;2081834;28;20037;-75
2023/03/18 03:44:27;;;;;;;13.63;7.40;;;7.00;85.80;;;;;;2077016;28;20116;-76
2023/03/18 03:45:27;;;;;;;12.93;7.55;;;7.00;87.00;;;;;;2077386;28;20856;-75
2023/03/18 03:46:28;;;;;;;12.27;7.55;;;7.00;86.00;;;;;;2086040;28;20045;-75
2023/03/18 03:47:29;;;;;;;12.38;7.22;;;7.00;86.00;;;;;;2075338;28;20036;-75
2023/03/18 03:48:30;;;;;;;16.17;8.00;;;7.00;85.90;;;;;;2076950;28;20025;-74
2023/03/18 03:49:31;;;;;;;11.63;7.53;;;7.00;86.30;;;;;;2093540;28;20055;-76
2023/03/18 03:50:32;;;;;;;10.65;7.50;;;7.00;85.40;;;;;;2086640;28;20033;-74
2023/03/18 03:51:32;;;;;;;12.13;7.82;;;7.00;85.70;;;;;;2072451;28;20130;-74
2023/03/18 03:52:33;;;;;;;14.90;8.00;;;7.00;87.20;;;;;;2083712;28;20037;-75
2023/03/18 03:53:34;;;;;;;12.32;7.57;;;7.00;87.90;;;;;;2077402;28;20055;-75
2023/03/18 03:54:35;;;;;;;12.52;7.97;;;7.00;87.80;;;;;;2077579;28;20036;-74
2023/03/18 03:55:36;;;;;;;13.52;8.00;;;7.00;88.40;;;;;;2075945;28;20033;-75
2023/03/18 03:56:37;;;;;;;12.98;7.82;;;7.00;87.70;;;;;;2075033;28;20518;-75
2023/03/18 03:57:38;;;;;;;16.20;8.52;;;7.00;87.90;;;;;;2084998;28;20028;-75
2023/03/18 03:58:39;;;;;;;11.63;7.50;;;7.00;87.40;;;;;;2089094;28;20447;-75
2023/03/18 03:59:40;;;;;;;14.38;7.90;;;6.90;87.60;;;;;;2078132;28;20032;-77
2023/03/18 04:00:52;;;;;;;11.88;7.75;;;6.90;88.30;;;;;;2086564;28;20128;-76
2023/03/18 04:01:53;;;;;;;14.32;8.13;;;6.90;88.40;;;;;;2087207;28;20478;-76
2023/03/18 04:02:55;;;;;;;14.25;8.27;;;6.90;87.80;;;;;;2076368;28;20113;-75
2023/03/18 04:03:57;;;;;;;13.02;7.90;;;6.90;88.30;;;;;;2077534;28;20056;-76
2023/03/18 04:04:58;;;;;;;14.23;7.97;;;6.90;89.20;;;;;;2077299;28;20144;-76
2023/03/18 04:06:03;;;;;;;13.43;7.97;;;6.90;89.00;;;;;;2076311;28;20026;-76
2023/03/18 04:07:05;;;;;;;13.13;7.93;;;6.90;88.00;;;;;;2082668;28;20041;-76
2023/03/18 04:08:06;;;;;;;12.82;7.90;;;6.90;88.60;;;;;;2087119;28;20028;-76
2023/03/18 04:09:09;;;;;;;11.55;7.30;;;6.90;89.60;;;;;;2084145;28;20121;-75
2023/03/18 04:10:13;;;;;;;12.23;7.45;;;6.90;89.60;;;;;;2085106;28;20031;-75
2023/03/18 04:11:14;;;;;;;15.05;7.63;;;6.90;90.00;;;;;;2080133;28;20123;-75
2023/03/18 04:12:18;;;;;;;12.40;8.10;;;6.80;90.10;;;;;;2070094;28;20131;-76
2023/03/18 04:13:26;;;;;;;12.77;7.28;;;6.80;89.60;;;;;;2075186;28;20041;-75
2023/03/18 04:14:28;;;;;;;13.35;7.55;;;6.80;89.60;;;;;;2078560;28;20029;-75
2023/03/18 04:15:28;;;;;;;15.35;8.13;;;6.80;90.10;;;;;;2086985;28;20040;-74
2023/03/18 04:16:29;;;;;;;13.52;7.97;;;6.80;89.40;;;;;;2087019;28;20104;-73
2023/03/18 04:17:30;;;;;;;12.48;7.90;;;6.80;90.10;;;;;;2089614;28;20518;-74
2023/03/18 04:18:31;;;;;;;11.93;7.43;;;6.80;90.10;;;;;;2086003;28;20075;-76
2023/03/18 04:19:32;;;;;;;13.27;7.63;;;6.80;90.10;;;;;;2084070;28;20075;-75
2023/03/18 04:20:35;;;;;;;14.30;7.82;;;6.80;90.10;;;;;;2087741;28;20427;-75
2023/03/18 04:21:38;;;;;;;13.35;7.50;;;6.80;89.80;;;;;;2089448;28;20098;-76
2023/03/18 04:22:39;;;;;;;14.65;7.93;;;6.80;89.20;;;;;;2081371;28;20495;-75
2023/03/18 04:23:42;;;;;;;12.32;7.65;;;6.80;90.50;;;;;;2083915;28;20020;-75
2023/03/18 04:24:43;;;;;;;15.02;7.85;;;6.80;90.20;;;;;;2085397;28;20029;-76
2023/03/18 04:25:44;;;;;;;12.65;7.55;;;6.70;90.30;;;;;;2086290;28;20115;-75
2023/03/18 04:26:45;;;;;;;13.27;7.93;;;6.70;90.30;;;;;;2069485;28;20030;-75
2023/03/18 04:27:45;;;;;;;15.05;8.45;;;6.70;90.70;;;;;;2088919;28;20037;-76
2023/03/18 04:28:47;;;;;;;12.15;7.55;;;6.70;90.20;;;;;;2087509;28;20025;-76
2023/03/18 04:29:49;;;;;;;13.18;8.13;;;6.70;90.30;;;;;;2083323;28;20024;-75
2023/03/18 04:30:51;;;;;;;13.10;8.15;;;6.70;90.60;;;;;;2081526;28;20078;-75
2023/03/18 04:31:52;;;;;;;14.05;8.00;;;6.70;90.90;;;;;;2080851;28;20183;-76
2023/03/18 04:32:53;;;;;;;12.20;7.93;;;6.70;90.70;;;;;;2078532;28;20032;-77
2023/03/18 04:33:54;;;;;;;12.77;7.88;;;6.70;90.60;;;;;;2078181;28;20500;-75
2023/03/18 04:34:55;;;;;;;12.15;8.02;;;6.60;90.80;;;;;;2065163;28;20018;-76
2023/03/18 04:35:56;;;;;;;12.65;7.80;;;6.60;90.80;;;;;;2081700;28;20032;-76
2023/03/18 04:36:57;;;;;;;13.23;8.40;;;6.60;91.00;;;;;;2085695;28;20120;-75
2023/03/18 04:37:59;;;;;;;12.93;7.60;;;6.60;91.10;;;;;;2079553;28;20032;-75
2023/03/18 04:39:01;;;;;;;14.43;8.07;;;6.60;91.70;;;;;;2079185;28;20074;-76
2023/03/18 04:40:04;;;;;;;14.02;8.38;;;6.60;91.30;;;;;;2078895;28;20021;-75
2023/03/18 04:41:05;;;;;;;14.38;8.40;;;6.60;91.50;;;;;;2078721;28;20033;-76
2023/03/18 04:42:06;;;;;;;13.30;8.20;;;6.60;91.10;;;;;;2083780;28;20020;-76
2023/03/18 04:43:09;;;;;;;14.88;8.00;;;6.60;91.50;;;;;;2079506;28;20715;-76
2023/03/18 04:44:10;;;;;;;12.45;7.72;;;6.60;91.60;;;;;;2085801;28;20036;-76
2023/03/18 04:45:16;;;;;;;14.48;8.20;;;6.60;91.50;;;;;;2081633;28;20691;-76
2023/03/18 04:46:17;;;;;;;12.90;8.25;;;6.60;91.70;;;;;;2081354;28;20037;-75
2023/03/18 04:47:21;;;;;;;13.48;8.10;;;6.60;91.80;;;;;;2077964;28;20103;-74
2023/03/18 04:48:24;;;;;;;13.00;7.68;;;6.50;92.00;;;;;;2070752;28;20029;-75
2023/03/18 04:49:28;;;;;;;14.05;8.23;;;6.50;92.00;;;;;;2080284;28;20124;-76
2023/03/18 04:50:29;;;;;;;13.00;8.15;;;6.50;91.70;;;;;;2084093;28;20108;-75
2023/03/18 04:51:30;;;;;;;11.60;7.88;;;6.50;92.20;;;;;;2086033;28;20036;-75
2023/03/18 04:52:32;;;;;;;13.00;8.30;;;6.50;92.00;;;;;;2088452;28;20033;-75
2023/03/18 04:53:36;;;;;;;12.15;7.82;;;6.50;91.60;;;;;;2085174;28;20020;-76
2023/03/18 04:54:38;;;;;;;15.48;8.30;;;6.50;91.60;;;;;;2075970;28;20038;-75
2023/03/18 04:55:39;;;;;;;12.88;8.15;;;6.50;91.60;;;;;;2064947;28;20015;-75
2023/03/18 04:56:42;;;;;;;14.32;8.35;;;6.50;92.20;;;;;;2073100;28;20025;-74
2023/03/18 04:57:43;;;;;;;15.30;8.45;;;6.50;92.00;;;;;;2087773;28;20027;-75
2023/03/18 04:58:48;;;;;;;13.20;8.10;;;6.50;91.90;;;;;;2082191;28;20405;-75
2023/03/18 04:59:53;;;;;;;14.20;7.82;;;6.50;92.20;;;;;;2083254;28;20905;-75
2023/03/18 05:00:53;;;;;;;13.65;8.20;;;6.40;92.10;;;;;;2080381;28;20025;-75
2023/03/18 05:01:59;;;;;;;13.57;8.00;;;6.40;91.90;;;;;;2076599;28;20028;-75
2023/03/18 05:03:02;;;;;;;13.18;8.20;;;6.40;92.50;;;;;;2066570;28;20441;-75
2023/03/18 05:04:02;;;;;;;12.18;8.20;;;6.40;92.50;;;;;;2062995;28;20030;-76
2023/03/18 05:05:14;;;;;;;13.15;7.97;;;6.40;92.60;;;;;;2088401;28;20039;-75
2023/03/18 05:06:23;;;;;;;12.77;8.05;;;6.40;92.70;;;;;;2090611;28;20028;-76
2023/03/18 05:07:29;;;;;;;12.98;8.20;;;6.30;92.80;;;;;;2078623;28;20059;-75
2023/03/18 05:08:35;;;;;;;14.05;8.18;;;6.30;93.20;;;;;;2079699;28;20603;-75
2023/03/18 05:09:36;;;;;;;13.63;8.30;;;6.30;92.90;;;;;;2077783;28;20029;-75
2023/03/18 05:10:39;;;;;;;13.38;8.27;;;6.30;92.80;;;;;;2081611;28;20021;-75
2023/03/18 05:11:39;;;;;;;13.88;8.10;;;6.30;93.00;;;;;;2080296;28;20559;-75
2023/03/18 05:12:51;;;;;;;13.95;8.55;;;6.40;92.90;;;;;;2081052;28;20655;-75
2023/03/18 05:14:00;;;;;;;11.90;7.75;;;6.30;93.10;;;;;;2078779;28;20537;-75
2023/03/18 05:15:04;;;;;;;14.80;8.50;;;6.30;93.20;;;;;;2067128;28;20108;-75
2023/03/18 05:16:05;;;;;;;13.15;7.97;;;6.30;93.20;;;;;;2071275;28;20022;-75
2023/03/18 05:17:06;;;;;;;15.15;8.93;;;6.30;93.00;;;;;;2082989;28;20022;-75
2023/03/18 05:18:11;;;;;;;13.88;8.43;;;6.30;92.80;;;;;;2087219;28;20028;-76
2023/03/18 05:19:13;;;;;;;15.13;8.32;;;6.30;93.80;;;;;;2083749;28;20037;-77
2023/03/18 05:20:21;;;;;;;20.00;13.60;;;6.30;93.40;;;;;;2077643;28;20032;-74
2023/03/18 05:21:22;;;;;;;16.38;10.50;;;6.30;93.70;;;;;;2083549;28;20029;-74
2023/03/18 05:22:24;;;;;;;14.25;8.45;;;6.30;93.70;;;;;;2082716;28;20033;-73
2023/03/18 05:23:33;;;;;;;12.57;8.13;;;6.30;93.30;;;;;;2083926;28;20570;-73
2023/03/18 05:24:33;;;;;;;14.23;7.95;;;6.30;93.20;;;;;;2085884;28;20094;-75
2023/03/18 05:25:35;;;;;;;13.05;8.23;;;6.30;93.50;;;;;;2088729;28;20040;-76
2023/03/18 05:26:36;;;;;;;15.57;8.75;;;6.20;94.00;;;;;;2079309;28;20029;-75
2023/03/18 05:27:37;;;;;;;13.27;8.45;;;6.20;93.70;;;;;;2084327;28;20037;-77
2023/03/18 05:28:44;;;;;;;12.45;8.50;;;6.20;93.70;;;;;;2083407;28;20093;-75
2023/03/18 05:30:05;;;;;;;;;;;6.30;93.80;;;;;;2076101;28;20150;-75